Time;durP1;ratioP1;P1;durP2;ratioP2;P2;SDS_P1;SDS_P2;PMS_P1;PMS_P2;Temp;Humidity;BMP_temperature;BMP_pressure;BME280_temperature;BME280_humidity;BME280_pressure;Samples;Min_cycle;Max_cycle;Signal;HPM_P1;HPM_P2
2022/03/10 00:00:14;;;;;;;;;;;;;;;15.54;47.36;101987.44;1032459;28;670;-70
2022/03/10 00:01:04;;;;;;;;;;;;;;;15.53;47.79;101981.22;1032257;28;634;-70
2022/03/10 00:01:55;;;;;;;;;;;;;;;15.53;47.47;101980.34;1032530;28;669;-70
2022/03/10 00:02:45;;;;;;;;;;;;;;;15.51;47.85;101980.47;1032224;28;768;-70
2022/03/10 00:03:36;;;;;;;;;;;;;;;15.51;47.78;101980.47;1032367;28;650;-70
2022/03/10 00:04:26;;;;;;;;;;;;;;;15.51;47.69;101980.47;1033687;28;681;-70
2022/03/10 00:05:18;;;;;;;;;;;;;;;15.51;47.97;101979.59;1033687;28;681;-70
2022/03/10 00:06:09;;;;;;;;;;;;;;;15.51;47.48;101985.84;1037677;28;704;-70
2022/03/10 00:07:02;;;;;;;;;;;;;;;15.50;47.86;101983.25;1037227;28;626;-70
2022/03/10 00:07:53;;;;;;;;;;;;;;;15.50;47.22;101985.94;1035517;28;1680;-70
2022/03/10 00:08:43;;;;;;;;;;;;;;;15.50;47.29;101985.94;1036513;28;1677;-70
2022/03/10 00:09:33;;;;;;;;;;;;;;;15.48;47.92;101980.66;1037488;28;652;-70
2022/03/10 00:10:24;;;;;;;;;;;;;;;15.48;48.10;101986.03;1036969;28;695;-70
2022/03/10 00:11:14;;;;;;;;;;;;;;;15.48;47.59;101979.81;1036900;28;690;-74
2022/03/10 00:12:05;;;;;;;;;;;;;;;15.48;47.98;101972.59;1036782;28;780;-73
2022/03/10 00:12:55;;;;;;;;;;;;;;;15.49;47.94;101978.84;1037501;28;716;-73
2022/03/10 00:13:45;;;;;;;;;;;;;;;15.48;47.70;101983.34;1036876;28;701;-73
2022/03/10 00:14:36;;;;;;;;;;;;;;;15.47;47.80;101983.44;1037601;28;816;-73
2022/03/10 00:15:26;;;;;;;;;;;;;;;15.47;47.53;101984.31;1036882;28;642;-71
2022/03/10 00:16:17;;;;;;;;;;;;;;;15.47;47.99;101984.31;1036792;28;757;-72
2022/03/10 00:17:07;;;;;;;;;;;;;;;15.46;48.19;101976.34;1036917;28;1973;-72
2022/03/10 00:18:02;;;;;;;;;;;;;;;15.45;47.89;101975.50;1037401;28;638;-71
2022/03/10 00:18:52;;;;;;;;;;;;;;;15.45;47.27;101980.88;1036942;28;697;-72
2022/03/10 00:19:43;;;;;;;;;;;;;;;15.45;47.44;101980.00;1037404;28;630;-72
2022/03/10 00:20:33;;;;;;;;;;;;;;;15.44;48.40;101975.59;1032942;28;673;-71
2022/03/10 00:21:24;;;;;;;;;;;;;;;15.44;47.79;101979.13;1032277;28;637;-72
2022/03/10 00:22:14;;;;;;;;;;;;;;;15.43;47.54;101982.78;1032467;28;568;-71
2022/03/10 00:23:05;;;;;;;;;;;;;;;15.43;47.57;101980.09;1033415;28;673;-71
2022/03/10 00:23:55;;;;;;;;;;;;;;;15.41;47.69;101979.34;1033309;28;728;-72
2022/03/10 00:24:46;;;;;;;;;;;;;;;15.42;47.51;101982.88;1032247;28;729;-71
2022/03/10 00:25:37;;;;;;;;;;;;;;;15.41;47.55;101984.72;1035975;28;646;-71
2022/03/10 00:26:27;;;;;;;;;;;;;;;15.39;48.02;101975.94;1036863;28;645;-71
2022/03/10 00:27:18;;;;;;;;;;;;;;;15.39;48.08;101986.66;1036545;28;797;-73
2022/03/10 00:28:08;;;;;;;;;;;;;;;15.40;48.06;101990.22;1036843;28;665;-71
2022/03/10 00:28:59;;;;;;;;;;;;;;;15.41;47.50;101992.78;1036786;28;828;-69
2022/03/10 00:29:49;;;;;;;;;;;;;;;15.40;47.76;101991.06;1036740;28;1312;-69
2022/03/10 00:30:40;;;;;;;;;;;;;;;15.41;47.78;101983.84;1040585;28;701;-70
2022/03/10 00:31:30;;;;;;;;;;;;;;;15.41;48.06;101989.22;1040192;28;697;-69
2022/03/10 00:32:20;;;;;;;;;;;;;;;15.41;47.40;101984.72;1034382;28;1713;-68
2022/03/10 00:33:11;;;;;;;;;;;;;;;15.40;47.56;101991.06;1032215;28;763;-68
2022/03/10 00:34:01;;;;;;;;;;;;;;;15.41;47.84;101997.28;1033095;28;626;-69
2022/03/10 00:34:52;;;;;;;;;;;;;;;15.41;48.15;101997.28;1031826;28;638;-69
2022/03/10 00:35:42;;;;;;;;;;;;;;;15.39;47.97;101989.34;1033965;28;689;-69
2022/03/10 00:36:33;;;;;;;;;;;;;;;15.40;47.66;101987.53;1032155;28;645;-69
2022/03/10 00:37:23;;;;;;;;;;;;;;;15.38;48.16;101992.13;1032193;28;2269;-70
2022/03/10 00:38:14;;;;;;;;;;;;;;;15.38;47.75;101992.13;1032147;28;638;-69
2022/03/10 00:39:04;;;;;;;;;;;;;;;15.37;47.85;101980.53;1032297;28;725;-69
2022/03/10 00:39:54;;;;;;;;;;;;;;;15.36;47.67;101981.50;1032121;28;662;-69
2022/03/10 00:40:45;;;;;;;;;;;;;;;15.37;47.66;101982.34;1032287;28;646;-69
2022/03/10 00:41:36;;;;;;;;;;;;;;;15.37;47.52;101982.34;1031635;28;642;-69
2022/03/10 00:42:26;;;;;;;;;;;;;;;15.36;47.83;101984.19;1033019;28;752;-69
2022/03/10 00:43:17;;;;;;;;;;;;;;;15.37;47.91;101983.22;1031788;28;633;-69
2022/03/10 00:44:07;;;;;;;;;;;;;;;15.35;47.56;101984.28;1032246;28;701;-70
2022/03/10 00:44:57;;;;;;;;;;;;;;;15.36;47.57;101983.31;1032785;28;818;-70
2022/03/10 00:45:48;;;;;;;;;;;;;;;15.36;48.07;101983.31;1032310;28;780;-69
2022/03/10 00:46:39;;;;;;;;;;;;;;;15.35;48.09;101990.50;1037219;28;1587;-69
2022/03/10 00:47:30;;;;;;;;;;;;;;;15.34;48.00;101988.78;1036293;28;661;-70
2022/03/10 00:48:20;;;;;;;;;;;;;;;15.35;47.47;101995.88;1037364;28;634;-70
2022/03/10 00:49:11;;;;;;;;;;;;;;;15.35;47.81;101989.66;1036987;28;689;-70
2022/03/10 00:50:01;;;;;;;;;;;;;;;15.32;47.86;101985.34;1036999;28;697;-70
2022/03/10 00:50:52;;;;;;;;;;;;;;;15.32;47.85;101985.34;1035958;28;659;-70
2022/03/10 00:51:42;;;;;;;;;;;;;;;15.31;47.99;101983.63;1036776;28;680;-69
2022/03/10 00:52:33;;;;;;;;;;;;;;;15.31;48.22;101988.13;1037278;28;684;-70
2022/03/10 00:53:23;;;;;;;;;;;;;;;15.31;47.82;101988.13;1037265;28;704;-70
2022/03/10 00:54:13;;;;;;;;;;;;;;;15.31;47.62;101989.00;1036987;28;895;-69
2022/03/10 00:55:04;;;;;;;;;;;;;;;15.31;48.25;101985.44;1037026;28;692;-69
2022/03/10 00:55:54;;;;;;;;;;;;;;;15.32;47.76;101984.47;1036747;28;692;-70
2022/03/10 00:56:45;;;;;;;;;;;;;;;15.30;48.10;101981.91;1032800;28;1713;-70
2022/03/10 00:57:35;;;;;;;;;;;;;;;15.29;48.29;101982.84;1031902;28;652;-70
2022/03/10 00:58:26;;;;;;;;;;;;;;;15.29;48.25;101991.78;1032056;28;1618;-70
2022/03/10 00:59:16;;;;;;;;;;;;;;;15.28;47.93;101983.81;1032207;28;666;-70
2022/03/10 01:00:06;;;;;;;;;;;;;;;15.28;47.66;101978.44;1031958;28;656;-70
2022/03/10 01:00:57;;;;;;;;;;;;;;;15.25;48.32;101981.34;1032108;28;653;-70
2022/03/10 01:01:47;;;;;;;;;;;;;;;15.26;47.85;101983.91;1032355;28;622;-69
2022/03/10 01:02:38;;;;;;;;;;;;;;;15.27;47.93;101987.47;1032906;28;688;-70
2022/03/10 01:03:28;;;;;;;;;;;;;;;15.28;48.07;101986.50;1031913;28;705;-72
2022/03/10 01:04:18;;;;;;;;;;;;;;;15.27;47.87;101987.47;1032820;28;704;-70
2022/03/10 01:05:09;;;;;;;;;;;;;;;15.27;47.74;101982.09;1032409;28;666;-71
2022/03/10 01:05:59;;;;;;;;;;;;;;;15.27;48.16;101982.09;1032356;28;697;-71
2022/03/10 01:06:50;;;;;;;;;;;;;;;15.24;48.36;101983.16;1032188;28;638;-71
2022/03/10 01:07:40;;;;;;;;;;;;;;;15.25;47.95;101973.28;1032876;28;716;-71
2022/03/10 01:08:30;;;;;;;;;;;;;;;15.24;47.62;101977.78;1031900;28;1595;-71
2022/03/10 01:09:21;;;;;;;;;;;;;;;15.23;47.91;101972.50;1037295;28;653;-71
2022/03/10 01:10:11;;;;;;;;;;;;;;;15.24;48.33;101979.59;1037284;28;684;-73
2022/03/10 01:11:02;;;;;;;;;;;;;;;15.22;48.39;101978.88;1037262;28;669;-71
2022/03/10 01:11:52;;;;;;;;;;;;;;;15.21;47.93;101975.31;1037276;28;629;-71
2022/03/10 01:12:44;;;;;;;;;;;;;;;15.22;48.29;101969.00;1037196;28;685;-71
2022/03/10 01:13:35;;;;;;;;;;;;;;;15.23;47.54;101970.69;1036993;28;694;-70
2022/03/10 01:14:26;;;;;;;;;;;;;;;15.23;48.05;101973.38;1036903;28;633;-70
2022/03/10 01:15:16;;;;;;;;;;;;;;;15.22;48.34;101973.50;1037207;28;679;-70
2022/03/10 01:16:07;;;;;;;;;;;;;;;15.23;48.37;101977.88;1037236;28;669;-70
2022/03/10 01:16:58;;;;;;;;;;;;;;;15.22;48.46;101978.88;1037188;28;629;-71
2022/03/10 01:17:48;;;;;;;;;;;;;;;15.22;48.05;101979.75;1037279;28;629;-70
2022/03/10 01:18:39;;;;;;;;;;;;;;;15.22;48.05;101976.19;1036083;28;667;-70
2022/03/10 01:19:29;;;;;;;;;;;;;;;15.20;48.35;101978.09;1037778;28;640;-70
2022/03/10 01:20:19;;;;;;;;;;;;;;;15.21;47.93;101977.16;1037180;28;621;-70
2022/03/10 01:21:10;;;;;;;;;;;;;;;15.22;48.29;101979.75;1033408;28;696;-70
2022/03/10 01:22:00;;;;;;;;;;;;;;;15.22;48.23;101977.06;1029820;28;649;-72
2022/03/10 01:22:51;;;;;;;;;;;;;;;15.20;48.46;101980.78;1032113;28;689;-72
2022/03/10 01:23:41;;;;;;;;;;;;;;;15.21;47.84;101985.22;1032587;28;736;-72
2022/03/10 01:24:32;;;;;;;;;;;;;;;15.20;48.70;101970.06;1031922;28;634;-72
2022/03/10 01:25:22;;;;;;;;;;;;;;;15.19;47.86;101976.38;1036060;28;700;-72
2022/03/10 01:26:12;;;;;;;;;;;;;;;15.19;47.87;101973.69;1036605;28;691;-72
2022/03/10 01:27:03;;;;;;;;;;;;;;;15.19;47.90;101974.56;1036547;28;709;-72
2022/03/10 01:27:53;;;;;;;;;;;;;;;15.17;48.08;101975.63;1036695;28;705;-72
2022/03/10 01:28:44;;;;;;;;;;;;;;;15.16;47.93;101971.22;1036622;28;650;-71
2022/03/10 01:29:34;;;;;;;;;;;;;;;15.16;48.23;101969.38;1036558;28;803;-71
2022/03/10 01:30:25;;;;;;;;;;;;;;;15.17;48.35;101972.94;1036508;28;669;-71
2022/03/10 01:31:16;;;;;;;;;;;;;;;15.17;47.85;101971.13;1040412;28;679;-71
2022/03/10 01:32:06;;;;;;;;;;;;;;;15.16;48.01;101973.91;1040038;28;682;-71
2022/03/10 01:32:56;;;;;;;;;;;;;;;15.13;48.46;101968.72;1033247;28;1737;-70
2022/03/10 01:33:47;;;;;;;;;;;;;;;15.15;48.62;101977.53;1032698;28;672;-71
2022/03/10 01:34:37;;;;;;;;;;;;;;;15.14;48.09;101975.81;1031833;28;674;-71
2022/03/10 01:35:28;;;;;;;;;;;;;;;15.15;48.41;101977.53;1031864;28;662;-71
2022/03/10 01:36:18;;;;;;;;;;;;;;;15.13;48.12;101971.41;1032846;28;737;-71
2022/03/10 01:37:09;;;;;;;;;;;;;;;15.14;47.93;101974.00;1031493;28;1910;-72
2022/03/10 01:37:59;;;;;;;;;;;;;;;15.14;48.45;101974.00;1031943;28;660;-71
2022/03/10 01:38:49;;;;;;;;;;;;;;;15.13;48.01;101968.72;1032170;28;638;-70
2022/03/10 01:39:40;;;;;;;;;;;;;;;15.13;48.09;101979.47;1031394;28;670;-71
2022/03/10 01:40:30;;;;;;;;;;;;;;;15.11;48.17;101979.56;1032034;28;662;-69
2022/03/10 01:41:21;;;;;;;;;;;;;;;15.10;47.85;101968.91;1031872;28;702;-69
2022/03/10 01:42:11;;;;;;;;;;;;;;;15.10;48.26;101977.84;1032001;28;677;-69
2022/03/10 01:43:01;;;;;;;;;;;;;;;15.11;48.28;101978.69;1032214;28;642;-69
2022/03/10 01:43:52;;;;;;;;;;;;;;;15.12;48.67;101977.75;1031852;28;626;-69
2022/03/10 01:44:42;;;;;;;;;;;;;;;15.10;47.77;101971.59;1033399;28;1654;-69
2022/03/10 01:45:33;;;;;;;;;;;;;;;15.09;48.63;101972.56;1036744;28;740;-69
2022/03/10 01:46:23;;;;;;;;;;;;;;;15.09;48.50;101975.25;1037098;28;697;-69
2022/03/10 01:47:14;;;;;;;;;;;;;;;15.10;48.50;101976.97;1037138;28;678;-69
2022/03/10 01:48:04;;;;;;;;;;;;;;;15.10;48.67;101975.16;1037102;28;685;-69
2022/03/10 01:48:54;;;;;;;;;;;;;;;15.10;48.49;101975.16;1037153;28;613;-69
2022/03/10 01:49:45;;;;;;;;;;;;;;;15.10;48.02;101979.66;1037116;28;669;-69
2022/03/10 01:50:35;;;;;;;;;;;;;;;15.09;48.52;101978.81;1037156;28;709;-69
2022/03/10 01:51:26;;;;;;;;;;;;;;;15.09;48.25;101977.94;1037143;28;692;-69
2022/03/10 01:52:16;;;;;;;;;;;;;;;15.07;48.41;101982.53;1035995;28;681;-69
2022/03/10 01:53:06;;;;;;;;;;;;;;;15.07;48.05;101979.84;1036499;28;723;-69
2022/03/10 01:53:57;;;;;;;;;;;;;;;15.07;48.08;101982.53;1036650;28;621;-69
2022/03/10 01:54:47;;;;;;;;;;;;;;;15.05;48.56;101976.44;1036627;28;625;-69
2022/03/10 01:55:38;;;;;;;;;;;;;;;15.05;48.48;101979.97;1035906;28;630;-71
2022/03/10 01:56:28;;;;;;;;;;;;;;;15.04;48.28;101975.59;1036739;28;673;-70
2022/03/10 01:57:19;;;;;;;;;;;;;;;15.04;48.35;101972.91;1033276;28;1898;-70
2022/03/10 01:58:09;;;;;;;;;;;;;;;15.05;48.53;101979.13;1032015;28;669;-70
2022/03/10 01:58:59;;;;;;;;;;;;;;;15.05;48.23;101981.81;1031837;28;634;-69
2022/03/10 01:59:50;;;;;;;;;;;;;;;15.05;48.22;101971.06;1032029;28;658;-70
2022/03/10 02:00:40;;;;;;;;;;;;;;;15.04;48.83;101972.91;1031969;28;654;-70
2022/03/10 02:01:31;;;;;;;;;;;;;;;15.04;48.72;101980.09;1031823;28;697;-69
2022/03/10 02:02:22;;;;;;;;;;;;;;;15.05;48.53;101971.06;1031830;28;646;-70
2022/03/10 02:03:12;;;;;;;;;;;;;;;15.04;48.28;101972.03;1032994;28;705;-70
2022/03/10 02:04:03;;;;;;;;;;;;;;;15.05;48.57;101976.44;1031816;28;709;-71
2022/03/10 02:04:53;;;;;;;;;;;;;;;15.04;48.24;101980.94;1033072;28;1619;-70
2022/03/10 02:05:43;;;;;;;;;;;;;;;15.04;48.28;101980.09;1033610;28;641;-70
2022/03/10 02:06:34;;;;;;;;;;;;;;;15.03;48.33;101979.22;1031860;28;638;-70
2022/03/10 02:10:52;;;;;;;;;;;;;;;15.00;48.77;101983.94;1032343;28;634;-71
2022/03/10 02:11:42;;;;;;;;;;;;;;;15.01;48.30;101974.91;1032423;28;1442;-73
2022/03/10 02:12:32;;;;;;;;;;;;;;;14.98;48.74;101975.97;1032497;28;642;-72
2022/03/10 02:13:23;;;;;;;;;;;;;;;14.98;48.61;101975.09;1032446;28;649;-72
2022/03/10 02:17:42;;;;;;;;;;;;;;;14.98;48.77;101977.78;1032458;28;1117;-72
2022/03/10 02:18:32;;;;;;;;;;;;;;;14.98;48.39;101975.97;1032445;28;709;-72
2022/03/10 02:19:23;;;;;;;;;;;;;;;14.96;48.22;101968.97;1031668;28;713;-72
2022/03/10 02:20:13;;;;;;;;;;;;;;;14.96;48.34;101977.03;1032486;28;729;-72
2022/03/10 02:21:03;;;;;;;;;;;;;;;14.95;48.59;101970.78;1032323;28;647;-72
2022/03/10 02:21:57;;;;;;;;;;;;;;;14.96;48.68;101977.88;1034706;28;1620;-71
2022/03/10 02:22:47;;;;;;;;;;;;;;;14.94;48.24;101972.63;1037010;28;700;-71
2022/03/10 02:23:37;;;;;;;;;;;;;;;14.95;48.52;101978.84;1036978;28;669;-69
2022/03/10 02:24:28;;;;;;;;;;;;;;;14.96;47.96;101971.66;1036398;28;735;-70
2022/03/10 02:25:18;;;;;;;;;;;;;;;14.94;48.56;101964.56;1032393;28;650;-69
2022/03/10 02:26:09;;;;;;;;;;;;;;;14.93;48.93;101976.25;1032967;28;674;-72
2022/03/10 02:26:59;;;;;;;;;;;;;;;14.93;48.52;101973.56;1031911;28;614;-72
2022/03/10 02:27:50;;;;;;;;;;;;;;;14.93;48.26;101978.94;1032082;28;650;-73
2022/03/10 02:28:40;;;;;;;;;;;;;;;14.92;48.18;101974.53;1031830;28;659;-72
2022/03/10 02:29:30;;;;;;;;;;;;;;;14.93;48.44;101973.56;1031646;28;638;-70
2022/03/10 02:30:21;;;;;;;;;;;;;;;14.93;48.21;101973.56;1034910;28;1774;-70
2022/03/10 02:31:11;;;;;;;;;;;;;;;14.92;48.44;101979.03;1037034;28;665;-70
2022/03/10 02:32:02;;;;;;;;;;;;;;;14.91;48.62;101977.31;1037018;28;642;-71
2022/03/10 02:32:52;;;;;;;;;;;;;;;14.91;48.48;101974.63;1037116;28;669;-71
2022/03/10 02:33:43;;;;;;;;;;;;;;;14.92;48.52;101981.72;1036880;28;638;-70
2022/03/10 02:34:33;;;;;;;;;;;;;;;14.91;48.11;101988.91;1036021;28;768;-70
2022/03/10 02:35:24;;;;;;;;;;;;;;;14.91;48.75;101982.69;1036657;28;650;-70
2022/03/10 02:36:14;;;;;;;;;;;;;;;14.90;47.84;101981.81;1036683;28;1105;-71
2022/03/10 02:37:05;;;;;;;;;;;;;;;14.89;48.26;101981.91;1036886;28;1902;-71
2022/03/10 02:37:56;;;;;;;;;;;;;;;14.89;48.67;101984.59;1036678;28;648;-70
2022/03/10 02:38:46;;;;;;;;;;;;;;;14.89;48.09;101980.09;1036679;28;645;-70
2022/03/10 02:39:37;;;;;;;;;;;;;;;14.88;48.11;101978.38;1036668;28;700;-71
2022/03/10 02:40:27;;;;;;;;;;;;;;;14.88;48.54;101983.75;1032412;28;1471;-71
2022/03/10 02:41:17;;;;;;;;;;;;;;;14.88;48.85;101978.38;1031968;28;650;-71
2022/03/10 02:42:08;;;;;;;;;;;;;;;14.88;47.99;101986.44;1032295;28;928;-71
2022/03/10 02:42:58;;;;;;;;;;;;;;;14.88;48.01;101980.19;1031929;28;694;-71
2022/03/10 02:43:49;;;;;;;;;;;;;;;14.87;48.03;101979.34;1032329;28;844;-71
2022/03/10 02:44:39;;;;;;;;;;;;;;;14.87;48.39;101975.78;1032409;28;740;-70
2022/03/10 02:45:29;;;;;;;;;;;;;;;14.87;48.42;101976.66;1032272;28;689;-71
2022/03/10 02:46:20;;;;;;;;;;;;;;;14.86;48.63;101971.41;1031757;28;638;-70
2022/03/10 02:47:10;;;;;;;;;;;;;;;14.85;48.79;101972.38;1031946;28;664;-70
2022/03/10 02:48:01;;;;;;;;;;;;;;;14.84;48.06;101981.38;1031748;28;673;-70
2022/03/10 02:48:51;;;;;;;;;;;;;;;14.84;48.44;101981.38;1031908;28;660;-72
2022/03/10 02:49:42;;;;;;;;;;;;;;;14.84;48.20;101976.88;1031767;28;653;-72
2022/03/10 02:50:32;;;;;;;;;;;;;;;14.83;47.80;101977.84;1031907;28;626;-71
2022/03/10 02:51:23;;;;;;;;;;;;;;;14.83;48.04;101975.16;1031755;28;693;-71
2022/03/10 02:52:13;;;;;;;;;;;;;;;14.82;48.40;101981.47;1031461;28;736;-71
2022/03/10 02:53:05;;;;;;;;;;;;;;;14.83;48.06;101980.53;1032368;28;642;-71
2022/03/10 02:53:55;;;;;;;;;;;;;;;14.83;47.88;101977.84;1031843;28;626;-71
2022/03/10 02:54:45;;;;;;;;;;;;;;;14.82;48.72;101976.09;1031894;28;662;-72
2022/03/10 02:55:36;;;;;;;;;;;;;;;14.83;48.67;101975.16;1031841;28;673;-72
2022/03/10 02:56:26;;;;;;;;;;;;;;;14.83;48.44;101975.16;1031915;28;681;-71
2022/03/10 02:57:17;;;;;;;;;;;;;;;14.82;48.61;101976.09;1031752;28;1953;-72
2022/03/10 02:58:07;;;;;;;;;;;;;;;14.81;48.61;101977.06;1031820;28;678;-72
2022/03/10 02:58:57;;;;;;;;;;;;;;;14.82;48.69;101977.94;1032015;28;636;-70
2022/03/10 02:59:48;;;;;;;;;;;;;;;14.82;48.21;101975.25;1032337;28;689;-72
2022/03/10 03:00:38;;;;;;;;;;;;;;;14.80;48.58;101975.34;1034592;28;1580;-71
2022/03/10 03:01:29;;;;;;;;;;;;;;;14.79;48.79;101970.94;1036884;28;818;-71
2022/03/10 03:02:19;;;;;;;;;;;;;;;14.79;47.90;101979.00;1037103;28;716;-71
2022/03/10 03:03:10;;;;;;;;;;;;;;;14.79;48.31;101980.81;1036919;28;672;-70
2022/03/10 03:04:00;;;;;;;;;;;;;;;14.79;48.20;101976.31;1037008;28;680;-71
2022/03/10 03:04:50;;;;;;;;;;;;;;;14.79;48.42;101970.06;1036889;28;669;-71
2022/03/10 03:05:41;;;;;;;;;;;;;;;14.78;48.29;101977.25;1035766;28;634;-71
2022/03/10 03:06:31;;;;;;;;;;;;;;;14.77;48.69;101978.22;1036149;28;704;-71
2022/03/10 03:07:23;;;;;;;;;;;;;;;14.78;48.68;101976.41;1036565;28;599;-70
2022/03/10 03:08:13;;;;;;;;;;;;;;;14.78;48.61;101974.56;1037007;28;673;-70
2022/03/10 03:09:04;;;;;;;;;;;;;;;14.80;48.27;101982.53;1036903;28;716;-69
2022/03/10 03:09:54;;;;;;;;;;;;;;;14.78;48.53;101982.63;1035834;28;637;-69
2022/03/10 03:10:44;;;;;;;;;;;;;;;14.78;48.35;101988.00;1033759;28;1631;-69
2022/03/10 03:11:35;;;;;;;;;;;;;;;14.77;48.54;101983.59;1031751;28;642;-69
2022/03/10 03:12:25;;;;;;;;;;;;;;;14.77;49.09;101988.94;1031844;28;685;-68
2022/03/10 03:13:16;;;;;;;;;;;;;;;14.76;48.46;101987.22;1032648;28;678;-69
2022/03/10 03:14:07;;;;;;;;;;;;;;;14.76;48.78;101984.53;1031448;28;622;-71
2022/03/10 03:14:57;;;;;;;;;;;;;;;14.75;48.38;101990.00;1031929;28;635;-71
2022/03/10 03:15:48;;;;;;;;;;;;;;;14.76;48.43;101992.59;1031700;28;627;-71
2022/03/10 03:16:38;;;;;;;;;;;;;;;14.76;48.27;101983.69;1031798;28;677;-71
2022/03/10 03:17:29;;;;;;;;;;;;;;;14.75;48.61;101985.50;1031592;28;1906;-71
2022/03/10 03:18:19;;;;;;;;;;;;;;;14.75;48.71;101990.88;1033409;28;1615;-68
2022/03/10 03:19:10;;;;;;;;;;;;;;;14.76;48.44;101992.59;1036845;28;724;-69
2022/03/10 03:20:00;;;;;;;;;;;;;;;14.75;48.87;101993.56;1035969;28;749;-70
2022/03/10 03:20:51;;;;;;;;;;;;;;;14.76;48.67;101989.06;1037560;28;696;-71
2022/03/10 03:21:41;;;;;;;;;;;;;;;14.74;48.51;101991.81;1037318;28;668;-71
2022/03/10 03:22:32;;;;;;;;;;;;;;;14.75;48.41;101990.88;1037396;28;615;-71
2022/03/10 03:23:25;;;;;;;;;;;;;;;14.74;48.40;102005.25;1037759;28;669;-71
2022/03/10 03:24:16;;;;;;;;;;;;;;;14.75;48.45;101996.22;1035165;28;1217;-70
2022/03/10 03:25:06;;;;;;;;;;;;;;;14.75;48.29;102001.59;1035397;28;1073;-70
2022/03/10 03:25:57;;;;;;;;;;;;;;;14.75;48.27;101996.22;1037136;28;1118;-70
2022/03/10 03:26:47;;;;;;;;;;;;;;;14.74;48.86;102007.06;1036991;28;1086;-69
2022/03/10 03:27:38;;;;;;;;;;;;;;;14.73;48.53;102006.19;1037134;28;1142;-68
2022/03/10 03:28:28;;;;;;;;;;;;;;;14.73;48.51;101997.28;1035855;28;1591;-71
2022/03/10 03:29:18;;;;;;;;;;;;;;;14.72;49.02;101999.09;1036696;28;709;-70
2022/03/10 03:30:09;;;;;;;;;;;;;;;14.71;48.87;101999.22;1035983;28;1240;-70
2022/03/10 03:30:59;;;;;;;;;;;;;;;14.71;49.21;101997.38;1035344;28;1042;-68
2022/03/10 03:31:50;;;;;;;;;;;;;;;14.72;49.17;102000.94;1035439;28;1078;-67
2022/03/10 03:32:40;;;;;;;;;;;;;;;14.72;48.89;102007.16;1035808;28;1217;-68
2022/03/10 03:33:30;;;;;;;;;;;;;;;14.69;48.96;101993.94;1036316;28;1165;-69
2022/03/10 03:34:21;;;;;;;;;;;;;;;14.72;48.50;102006.28;1033748;28;1090;-69
2022/03/10 03:35:11;;;;;;;;;;;;;;;14.69;49.30;102004.66;1034030;28;1130;-69
2022/03/10 03:36:02;;;;;;;;;;;;;;;14.69;48.42;102004.66;1033604;28;1209;-69
2022/03/10 03:36:53;;;;;;;;;;;;;;;14.69;48.71;102010.03;1037425;28;1218;-69
2022/03/10 03:37:43;;;;;;;;;;;;;;;14.71;48.55;102005.44;1036345;28;1206;-69
2022/03/10 03:38:34;;;;;;;;;;;;;;;14.72;48.53;102011.66;1036037;28;1205;-70
2022/03/10 03:39:24;;;;;;;;;;;;;;;14.69;49.16;102007.34;1033691;28;1122;-70
2022/03/10 03:40:15;;;;;;;;;;;;;;;14.70;49.21;102013.56;1033380;28;1090;-70
2022/03/10 03:41:05;;;;;;;;;;;;;;;14.68;48.54;102008.34;1034155;28;1126;-70
2022/03/10 03:41:55;;;;;;;;;;;;;;;14.69;49.17;102010.03;1033330;28;1094;-70
2022/03/10 03:42:46;;;;;;;;;;;;;;;14.68;48.55;102012.84;1033423;28;1126;-70
2022/03/10 03:43:37;;;;;;;;;;;;;;;14.69;48.52;102006.53;1036265;28;1083;-69
2022/03/10 03:44:27;;;;;;;;;;;;;;;14.68;48.94;102015.53;1035934;28;1118;-70
2022/03/10 03:45:17;;;;;;;;;;;;;;;14.66;48.67;102012.94;1036526;28;1153;-70
2022/03/10 03:46:09;;;;;;;;;;;;;;;14.67;49.20;102008.44;1035927;28;1213;-70
2022/03/10 03:46:59;;;;;;;;;;;;;;;14.66;48.98;102006.72;1036429;28;1153;-70
2022/03/10 03:47:50;;;;;;;;;;;;;;;14.65;48.76;102005.84;1036009;28;1264;-69
2022/03/10 03:48:40;;;;;;;;;;;;;;;14.66;48.99;102001.34;1033204;28;1103;-69
2022/03/10 03:49:30;;;;;;;;;;;;;;;14.64;48.85;102006.81;1033256;28;1129;-70
2022/03/10 03:50:21;;;;;;;;;;;;;;;14.65;48.58;102010.34;1033228;28;1111;-70
2022/03/10 03:51:11;;;;;;;;;;;;;;;14.65;48.86;102016.56;1036894;28;1289;-70
2022/03/10 03:52:02;;;;;;;;;;;;;;;14.65;49.14;102013.03;1034213;28;1194;-70
2022/03/10 03:52:52;;;;;;;;;;;;;;;14.64;48.64;102016.66;1034939;28;1218;-70
2022/03/10 03:53:43;;;;;;;;;;;;;;;14.64;48.64;102017.53;1034353;28;1087;-69
2022/03/10 03:54:33;;;;;;;;;;;;;;;14.63;48.63;102015.81;1034599;28;1077;-70
2022/03/10 03:55:23;;;;;;;;;;;;;;;14.62;48.93;102007.84;1034344;28;1197;-69
2022/03/10 03:56:14;;;;;;;;;;;;;;;14.62;48.43;102015.91;1034454;28;1056;-69
2022/03/10 03:57:04;;;;;;;;;;;;;;;14.62;48.64;102013.22;1034415;28;1114;-70
2022/03/10 03:57:55;;;;;;;;;;;;;;;14.61;49.02;102020.41;1033825;28;1364;-71
2022/03/10 03:58:45;;;;;;;;;;;;;;;14.62;48.27;102014.09;1035126;28;1095;-71
2022/03/10 03:59:36;;;;;;;;;;;;;;;14.62;49.30;102021.28;1035956;28;1316;-70
2022/03/10 04:00:26;;;;;;;;;;;;;;;14.62;48.85;102019.44;1036364;28;1094;-71
2022/03/10 04:01:17;;;;;;;;;;;;;;;14.59;48.41;102020.50;1033867;28;1183;-72
2022/03/10 04:02:08;;;;;;;;;;;;;;;14.61;48.57;102020.41;1036353;28;1305;-70
2022/03/10 04:02:58;;;;;;;;;;;;;;;14.60;48.74;102018.69;1035962;28;1222;-70
2022/03/10 04:03:49;;;;;;;;;;;;;;;14.61;48.82;102023.09;1033947;28;1372;-70
2022/03/10 04:04:39;;;;;;;;;;;;;;;14.60;49.02;102021.38;1035540;28;1153;-70
2022/03/10 04:05:30;;;;;;;;;;;;;;;14.59;49.14;102020.50;1033573;28;982;-70
2022/03/10 04:06:20;;;;;;;;;;;;;;;14.58;48.45;102015.22;1036254;28;1267;-70
2022/03/10 04:07:11;;;;;;;;;;;;;;;14.58;48.47;102025.97;1035942;28;1195;-71
2022/03/10 04:08:01;;;;;;;;;;;;;;;14.57;48.60;102024.22;1034965;28;1384;-71
2022/03/10 04:08:52;;;;;;;;;;;;;;;14.57;48.33;102019.72;1035140;28;1063;-71
2022/03/10 04:09:42;;;;;;;;;;;;;;;14.57;48.43;102021.56;1036771;28;1160;-71
2022/03/10 04:10:32;;;;;;;;;;;;;;;14.57;49.00;102024.22;1036706;28;1094;-71
2022/03/10 04:11:23;;;;;;;;;;;;;;;14.56;49.06;102022.50;1032843;28;693;-68
2022/03/10 04:12:13;;;;;;;;;;;;;;;14.55;48.98;102024.31;1033026;28;685;-68
2022/03/10 04:13:04;;;;;;;;;;;;;;;14.56;48.45;102028.75;1033124;28;678;-69
2022/03/10 04:13:54;;;;;;;;;;;;;;;14.55;48.60;102027.00;1032643;28;699;-69
2022/03/10 04:14:45;;;;;;;;;;;;;;;14.54;49.22;102027.09;1032554;28;662;-69
2022/03/10 04:15:35;;;;;;;;;;;;;;;14.54;48.73;102024.41;1032615;28;635;-68
2022/03/10 04:16:26;;;;;;;;;;;;;;;14.54;48.98;102027.97;1035537;28;1608;-67
2022/03/10 04:17:17;;;;;;;;;;;;;;;14.54;49.01;102024.41;1049415;22;3626;-71
2022/03/10 04:18:07;;;;;;;;;;;;;;;14.53;48.31;102028.91;1040682;28;653;-71
2022/03/10 04:18:57;;;;;;;;;;;;;;;14.52;48.79;102027.19;1039861;28;705;-71
2022/03/10 04:19:48;;;;;;;;;;;;;;;14.53;49.01;102036.09;1040139;28;782;-71
2022/03/10 04:20:38;;;;;;;;;;;;;;;14.53;48.62;102026.25;1040371;28;857;-71
2022/03/10 04:21:29;;;;;;;;;;;;;;;14.52;48.87;102032.56;1040377;28;1001;-71
2022/03/10 04:22:19;;;;;;;;;;;;;;;14.53;48.86;102028.06;1040105;28;653;-71
2022/03/10 04:23:10;;;;;;;;;;;;;;;14.54;48.15;102032.47;1040096;28;716;-71
2022/03/10 04:24:00;;;;;;;;;;;;;;;14.50;48.88;102023.78;1040228;28;705;-71
2022/03/10 04:24:50;;;;;;;;;;;;;;;14.51;48.92;102030.84;1040721;28;1248;-71
2022/03/10 04:25:41;;;;;;;;;;;;;;;14.52;48.93;102031.69;1041426;28;582;-72
2022/03/10 04:26:31;;;;;;;;;;;;;;;14.52;48.63;102031.69;1037394;28;1490;-71
2022/03/10 04:27:22;;;;;;;;;;;;;;;14.52;48.92;102026.34;1037226;28;700;-71
2022/03/10 04:28:12;;;;;;;;;;;;;;;14.50;48.03;102028.28;1036039;28;623;-71
2022/03/10 04:29:02;;;;;;;;;;;;;;;14.49;48.76;102021.19;1036284;28;618;-71
2022/03/10 04:29:53;;;;;;;;;;;;;;;14.48;48.28;102024.81;1036025;28;604;-70
2022/03/10 04:30:44;;;;;;;;;;;;;;;14.47;48.73;102023.09;1037072;28;642;-70
2022/03/10 04:31:34;;;;;;;;;;;;;;;14.47;48.90;102026.66;1037358;28;689;-71
2022/03/10 04:32:25;;;;;;;;;;;;;;;14.48;48.28;102024.81;1036144;28;705;-71